sensor_id;sensor_type;location;lat;lon;timestamp;P1;durP1;ratioP1;P2;durP2;ratioP2
11797;SDS011;5956;51.428;6.682;2023-07-20T00:00:54;4.90;;;4.35;;
11797;SDS011;5956;51.428;6.682;2023-07-20T00:03:21;6.32;;;4.47;;
11797;SDS011;5956;51.428;6.682;2023-07-20T00:05:50;4.72;;;4.30;;
11797;SDS011;5956;51.428;6.682;2023-07-20T00:08:17;4.97;;;4.28;;
11797;SDS011;5956;51.428;6.682;2023-07-20T00:10:43;5.97;;;4.68;;
11797;SDS011;5956;51.428;6.682;2023-07-20T00:13:11;4.93;;;4.50;;
11797;SDS011;5956;51.428;6.682;2023-07-20T00:15:39;6.72;;;4.80;;
11797;SDS011;5956;51.428;6.682;2023-07-20T00:18:06;5.35;;;4.85;;
11797;SDS011;5956;51.428;6.682;2023-07-20T00:20:33;4.70;;;4.22;;
11797;SDS011;5956;51.428;6.682;2023-07-20T00:23:00;5.25;;;4.55;;
11797;SDS011;5956;51.428;6.682;2023-07-20T00:25:27;4.78;;;3.97;;
11797;SDS011;5956;51.428;6.682;2023-07-20T00:27:53;4.82;;;4.28;;
11797;SDS011;5956;51.428;6.682;2023-07-20T00:30:20;5.30;;;4.78;;
11797;SDS011;5956;51.428;6.682;2023-07-20T00:32:48;4.43;;;4.00;;
11797;SDS011;5956;51.428;6.682;2023-07-20T00:35:15;6.05;;;4.07;;
11797;SDS011;5956;51.428;6.682;2023-07-20T00:37:42;5.45;;;4.40;;
11797;SDS011;5956;51.428;6.682;2023-07-20T00:40:09;4.97;;;4.57;;
11797;SDS011;5956;51.428;6.682;2023-07-20T00:42:36;4.28;;;3.97;;
11797;SDS011;5956;51.428;6.682;2023-07-20T00:45:05;7.63;;;4.90;;
11797;SDS011;5956;51.428;6.682;2023-07-20T00:47:32;4.93;;;4.45;;
11797;SDS011;5956;51.428;6.682;2023-07-20T00:50:00;6.15;;;5.03;;
11797;SDS011;5956;51.428;6.682;2023-07-20T00:52:27;6.43;;;4.38;;
11797;SDS011;5956;51.428;6.682;2023-07-20T00:54:54;5.88;;;4.80;;
11797;SDS011;5956;51.428;6.682;2023-07-20T00:57:21;5.15;;;4.38;;
11797;SDS011;5956;51.428;6.682;2023-07-20T00:59:50;5.18;;;4.68;;
11797;SDS011;5956;51.428;6.682;2023-07-20T01:02:16;6.10;;;4.50;;
11797;SDS011;5956;51.428;6.682;2023-07-20T01:04:43;5.13;;;4.70;;
11797;SDS011;5956;51.428;6.682;2023-07-20T01:07:12;5.38;;;4.82;;
11797;SDS011;5956;51.428;6.682;2023-07-20T01:09:42;5.82;;;5.22;;
11797;SDS011;5956;51.428;6.682;2023-07-20T01:12:09;5.18;;;4.60;;
11797;SDS011;5956;51.428;6.682;2023-07-20T01:14:38;5.20;;;4.70;;
11797;SDS011;5956;51.428;6.682;2023-07-20T01:17:05;5.38;;;4.60;;
11797;SDS011;5956;51.428;6.682;2023-07-20T01:19:32;5.10;;;4.60;;
11797;SDS011;5956;51.428;6.682;2023-07-20T01:21:59;8.23;;;5.07;;
11797;SDS011;5956;51.428;6.682;2023-07-20T01:27:26;6.43;;;5.07;;
11797;SDS011;5956;51.428;6.682;2023-07-20T01:32:51;5.72;;;5.00;;
11797;SDS011;5956;51.428;6.682;2023-07-20T01:35:20;7.47;;;5.50;;
11797;SDS011;5956;51.428;6.682;2023-07-20T01:37:50;6.45;;;5.72;;
11797;SDS011;5956;51.428;6.682;2023-07-20T01:40:17;6.97;;;5.57;;
11797;SDS011;5956;51.428;6.682;2023-07-20T01:42:44;7.88;;;6.60;;
11797;SDS011;5956;51.428;6.682;2023-07-20T01:45:11;7.10;;;6.40;;
11797;SDS011;5956;51.428;6.682;2023-07-20T01:47:37;12.00;;;7.45;;
11797;SDS011;5956;51.428;6.682;2023-07-20T01:50:06;8.48;;;6.70;;
11797;SDS011;5956;51.428;6.682;2023-07-20T01:52:33;7.75;;;7.00;;
11797;SDS011;5956;51.428;6.682;2023-07-20T01:54:59;6.95;;;6.10;;
11797;SDS011;5956;51.428;6.682;2023-07-20T01:57:26;7.90;;;6.60;;
11797;SDS011;5956;51.428;6.682;2023-07-20T01:59:52;7.18;;;6.47;;
11797;SDS011;5956;51.428;6.682;2023-07-20T02:02:19;6.90;;;6.32;;
11797;SDS011;5956;51.428;6.682;2023-07-20T02:04:46;8.48;;;6.85;;
11797;SDS011;5956;51.428;6.682;2023-07-20T02:07:14;7.65;;;6.88;;
11797;SDS011;5956;51.428;6.682;2023-07-20T02:09:41;8.10;;;7.40;;
11797;SDS011;5956;51.428;6.682;2023-07-20T02:12:07;7.65;;;6.57;;
11797;SDS011;5956;51.428;6.682;2023-07-20T02:14:34;7.32;;;6.63;;
11797;SDS011;5956;51.428;6.682;2023-07-20T02:17:00;7.63;;;6.85;;
11797;SDS011;5956;51.428;6.682;2023-07-20T02:19:28;7.85;;;7.03;;
11797;SDS011;5956;51.428;6.682;2023-07-20T02:21:54;7.72;;;6.97;;
11797;SDS011;5956;51.428;6.682;2023-07-20T02:24:22;8.50;;;7.63;;
11797;SDS011;5956;51.428;6.682;2023-07-20T02:26:50;9.80;;;7.50;;
11797;SDS011;5956;51.428;6.682;2023-07-20T02:29:16;9.73;;;8.20;;
11797;SDS011;5956;51.428;6.682;2023-07-20T02:31:43;10.85;;;7.53;;
11797;SDS011;5956;51.428;6.682;2023-07-20T02:34:09;7.97;;;7.20;;
11797;SDS011;5956;51.428;6.682;2023-07-20T02:36:36;8.02;;;7.15;;
11797;SDS011;5956;51.428;6.682;2023-07-20T02:39:03;9.95;;;7.63;;
11797;SDS011;5956;51.428;6.682;2023-07-20T02:41:32;8.23;;;7.43;;
11797;SDS011;5956;51.428;6.682;2023-07-20T02:43:59;9.90;;;8.25;;
11797;SDS011;5956;51.428;6.682;2023-07-20T02:46:26;8.75;;;7.95;;
11797;SDS011;5956;51.428;6.682;2023-07-20T02:48:55;8.55;;;7.60;;
11797;SDS011;5956;51.428;6.682;2023-07-20T02:51:21;9.07;;;8.07;;
11797;SDS011;5956;51.428;6.682;2023-07-20T02:53:48;7.60;;;6.90;;
11797;SDS011;5956;51.428;6.682;2023-07-20T02:56:14;9.63;;;8.50;;
11797;SDS011;5956;51.428;6.682;2023-07-20T02:58:42;8.65;;;7.70;;
11797;SDS011;5956;51.428;6.682;2023-07-20T03:01:10;8.65;;;7.72;;
11797;SDS011;5956;51.428;6.682;2023-07-20T03:03:37;8.10;;;7.28;;
11797;SDS011;5956;51.428;6.682;2023-07-20T03:06:04;8.45;;;7.30;;
11797;SDS011;5956;51.428;6.682;2023-07-20T03:08:30;8.73;;;7.93;;
11797;SDS011;5956;51.428;6.682;2023-07-20T03:10:57;8.88;;;7.47;;
11797;SDS011;5956;51.428;6.682;2023-07-20T03:13:23;8.73;;;7.85;;
11797;SDS011;5956;51.428;6.682;2023-07-20T03:15:52;8.93;;;8.05;;
11797;SDS011;5956;51.428;6.682;2023-07-20T03:18:19;8.38;;;7.57;;
11797;SDS011;5956;51.428;6.682;2023-07-20T03:20:45;8.65;;;7.63;;
11797;SDS011;5956;51.428;6.682;2023-07-20T03:23:13;8.43;;;7.63;;
11797;SDS011;5956;51.428;6.682;2023-07-20T03:25:40;8.70;;;7.85;;
11797;SDS011;5956;51.428;6.682;2023-07-20T03:28:07;9.00;;;7.88;;
11797;SDS011;5956;51.428;6.682;2023-07-20T03:30:34;8.80;;;7.53;;
11797;SDS011;5956;51.428;6.682;2023-07-20T03:33:02;10.88;;;8.30;;
11797;SDS011;5956;51.428;6.682;2023-07-20T03:35:29;9.48;;;8.50;;
11797;SDS011;5956;51.428;6.682;2023-07-20T03:37:56;11.02;;;8.68;;
11797;SDS011;5956;51.428;6.682;2023-07-20T03:40:22;11.43;;;9.02;;
11797;SDS011;5956;51.428;6.682;2023-07-20T03:42:49;9.98;;;8.95;;
11797;SDS011;5956;51.428;6.682;2023-07-20T03:45:15;10.18;;;9.18;;
11797;SDS011;5956;51.428;6.682;2023-07-20T03:47:42;10.55;;;9.02;;
11797;SDS011;5956;51.428;6.682;2023-07-20T03:50:11;9.32;;;8.45;;
11797;SDS011;5956;51.428;6.682;2023-07-20T03:52:37;9.38;;;8.48;;
11797;SDS011;5956;51.428;6.682;2023-07-20T03:55:04;10.25;;;9.13;;
11797;SDS011;5956;51.428;6.682;2023-07-20T03:57:31;10.48;;;9.45;;
11797;SDS011;5956;51.428;6.682;2023-07-20T03:59:58;11.00;;;9.60;;
11797;SDS011;5956;51.428;6.682;2023-07-20T04:02:23;10.48;;;9.38;;
11797;SDS011;5956;51.428;6.682;2023-07-20T04:04:50;11.55;;;10.35;;
11797;SDS011;5956;51.428;6.682;2023-07-20T04:07:18;11.60;;;10.50;;
11797;SDS011;5956;51.428;6.682;2023-07-20T04:09:45;12.07;;;10.85;;
11797;SDS011;5956;51.428;6.682;2023-07-20T04:12:11;12.48;;;11.38;;
11797;SDS011;5956;51.428;6.682;2023-07-20T04:14:37;13.85;;;11.25;;
11797;SDS011;5956;51.428;6.682;2023-07-20T04:17:04;13.82;;;12.35;;
11797;SDS011;5956;51.428;6.682;2023-07-20T04:19:30;13.27;;;11.35;;
11797;SDS011;5956;51.428;6.682;2023-07-20T04:21:57;15.18;;;12.75;;
11797;SDS011;5956;51.428;6.682;2023-07-20T04:24:25;12.27;;;11.18;;
11797;SDS011;5956;51.428;6.682;2023-07-20T04:26:51;13.43;;;12.23;;
11797;SDS011;5956;51.428;6.682;2023-07-20T04:29:18;13.63;;;12.52;;
11797;SDS011;5956;51.428;6.682;2023-07-20T04:31:44;14.30;;;12.68;;
11797;SDS011;5956;51.428;6.682;2023-07-20T04:34:11;14.05;;;12.63;;
11797;SDS011;5956;51.428;6.682;2023-07-20T04:36:37;13.18;;;11.95;;
11797;SDS011;5956;51.428;6.682;2023-07-20T04:39:04;14.07;;;12.70;;
11797;SDS011;5956;51.428;6.682;2023-07-20T04:41:32;13.98;;;12.55;;
11797;SDS011;5956;51.428;6.682;2023-07-20T04:43:58;14.73;;;13.50;;
11797;SDS011;5956;51.428;6.682;2023-07-20T04:46:25;15.25;;;13.70;;
11797;SDS011;5956;51.428;6.682;2023-07-20T04:48:51;15.75;;;14.25;;
11797;SDS011;5956;51.428;6.682;2023-07-20T04:51:18;14.70;;;13.38;;
11797;SDS011;5956;51.428;6.682;2023-07-20T04:53:46;15.00;;;13.60;;
11797;SDS011;5956;51.428;6.682;2023-07-20T04:56:12;16.13;;;14.55;;
11797;SDS011;5956;51.428;6.682;2023-07-20T04:58:40;15.93;;;14.43;;
11797;SDS011;5956;51.428;6.682;2023-07-20T05:01:07;15.10;;;13.73;;
11797;SDS011;5956;51.428;6.682;2023-07-20T05:03:34;15.45;;;13.85;;
11797;SDS011;5956;51.428;6.682;2023-07-20T05:06:00;16.20;;;14.55;;
11797;SDS011;5956;51.428;6.682;2023-07-20T05:08:27;15.60;;;14.10;;
11797;SDS011;5956;51.428;6.682;2023-07-20T05:10:53;14.80;;;13.60;;
11797;SDS011;5956;51.428;6.682;2023-07-20T05:13:20;15.27;;;13.80;;
11797;SDS011;5956;51.428;6.682;2023-07-20T05:15:50;15.15;;;13.75;;
11797;SDS011;5956;51.428;6.682;2023-07-20T05:18:17;14.57;;;13.07;;
11797;SDS011;5956;51.428;6.682;2023-07-20T05:20:45;13.27;;;12.05;;
11797;SDS011;5956;51.428;6.682;2023-07-20T05:23:12;13.75;;;12.57;;
11797;SDS011;5956;51.428;6.682;2023-07-20T05:25:38;13.02;;;11.85;;
11797;SDS011;5956;51.428;6.682;2023-07-20T05:28:05;13.27;;;12.18;;
11797;SDS011;5956;51.428;6.682;2023-07-20T05:30:31;12.55;;;11.38;;
11797;SDS011;5956;51.428;6.682;2023-07-20T05:32:59;11.50;;;10.50;;
11797;SDS011;5956;51.428;6.682;2023-07-20T05:35:26;12.20;;;11.00;;
11797;SDS011;5956;51.428;6.682;2023-07-20T05:37:52;11.77;;;10.85;;
11797;SDS011;5956;51.428;6.682;2023-07-20T05:40:19;13.63;;;11.82;;
11797;SDS011;5956;51.428;6.682;2023-07-20T05:42:46;11.95;;;10.95;;
11797;SDS011;5956;51.428;6.682;2023-07-20T05:45:13;14.07;;;12.88;;
11797;SDS011;5956;51.428;6.682;2023-07-20T05:47:41;14.80;;;13.32;;
11797;SDS011;5956;51.428;6.682;2023-07-20T05:50:09;14.18;;;12.77;;
11797;SDS011;5956;51.428;6.682;2023-07-20T05:52:36;13.60;;;12.23;;
11797;SDS011;5956;51.428;6.682;2023-07-20T05:55:04;13.55;;;12.30;;
11797;SDS011;5956;51.428;6.682;2023-07-20T05:57:30;13.68;;;12.50;;
11797;SDS011;5956;51.428;6.682;2023-07-20T05:59:57;14.38;;;11.43;;
11797;SDS011;5956;51.428;6.682;2023-07-20T06:02:23;12.55;;;10.90;;
11797;SDS011;5956;51.428;6.682;2023-07-20T06:04:50;11.95;;;10.75;;
11797;SDS011;5956;51.428;6.682;2023-07-20T06:07:18;12.93;;;11.70;;
11797;SDS011;5956;51.428;6.682;2023-07-20T06:09:44;12.45;;;11.35;;
11797;SDS011;5956;51.428;6.682;2023-07-20T06:12:11;12.85;;;11.73;;
11797;SDS011;5956;51.428;6.682;2023-07-20T06:14:37;12.23;;;11.23;;
11797;SDS011;5956;51.428;6.682;2023-07-20T06:17:04;11.90;;;10.90;;
11797;SDS011;5956;51.428;6.682;2023-07-20T06:19:31;11.40;;;10.40;;
11797;SDS011;5956;51.428;6.682;2023-07-20T06:21:57;9.70;;;8.90;;
11797;SDS011;5956;51.428;6.682;2023-07-20T06:24:25;9.10;;;8.30;;
11797;SDS011;5956;51.428;6.682;2023-07-20T06:26:52;6.20;;;5.75;;
11797;SDS011;5956;51.428;6.682;2023-07-20T06:29:18;11.43;;;10.32;;
11797;SDS011;5956;51.428;6.682;2023-07-20T06:31:45;10.73;;;9.73;;
11797;SDS011;5956;51.428;6.682;2023-07-20T06:34:11;11.73;;;10.68;;
11797;SDS011;5956;51.428;6.682;2023-07-20T06:36:38;11.55;;;10.55;;
11797;SDS011;5956;51.428;6.682;2023-07-20T06:39:04;10.18;;;9.27;;
11797;SDS011;5956;51.428;6.682;2023-07-20T06:41:32;9.90;;;8.25;;
11797;SDS011;5956;51.428;6.682;2023-07-20T06:43:59;6.00;;;5.50;;
11797;SDS011;5956;51.428;6.682;2023-07-20T06:46:25;5.00;;;4.70;;
11797;SDS011;5956;51.428;6.682;2023-07-20T06:48:52;5.10;;;4.70;;
11797;SDS011;5956;51.428;6.682;2023-07-20T06:51:18;5.22;;;4.88;;
11797;SDS011;5956;51.428;6.682;2023-07-20T06:53:45;3.60;;;3.40;;
11797;SDS011;5956;51.428;6.682;2023-07-20T06:56:11;3.65;;;3.45;;
11797;SDS011;5956;51.428;6.682;2023-07-20T06:58:39;3.50;;;3.30;;
11797;SDS011;5956;51.428;6.682;2023-07-20T07:01:07;3.38;;;3.10;;
11797;SDS011;5956;51.428;6.682;2023-07-20T07:03:33;3.30;;;3.10;;
11797;SDS011;5956;51.428;6.682;2023-07-20T07:06:00;4.15;;;2.55;;
11797;SDS011;5956;51.428;6.682;2023-07-20T07:08:26;2.58;;;2.05;;
11797;SDS011;5956;51.428;6.682;2023-07-20T07:10:53;2.17;;;2.08;;
11797;SDS011;5956;51.428;6.682;2023-07-20T07:13:19;2.70;;;2.60;;
11797;SDS011;5956;51.428;6.682;2023-07-20T07:15:47;3.47;;;3.28;;
11797;SDS011;5956;51.428;6.682;2023-07-20T07:18:14;3.72;;;3.53;;
11797;SDS011;5956;51.428;6.682;2023-07-20T07:20:40;3.53;;;3.22;;
11797;SDS011;5956;51.428;6.682;2023-07-20T07:23:07;2.95;;;2.83;;
11797;SDS011;5956;51.428;6.682;2023-07-20T07:25:33;3.60;;;3.40;;
11797;SDS011;5956;51.428;6.682;2023-07-20T07:28:00;3.78;;;3.30;;
11797;SDS011;5956;51.428;6.682;2023-07-20T07:30:26;3.50;;;3.22;;
11797;SDS011;5956;51.428;6.682;2023-07-20T07:32:54;4.03;;;2.85;;
11797;SDS011;5956;51.428;6.682;2023-07-20T07:35:20;2.65;;;2.55;;
11797;SDS011;5956;51.428;6.682;2023-07-20T07:37:47;3.10;;;2.80;;
11797;SDS011;5956;51.428;6.682;2023-07-20T07:40:14;6.53;;;5.90;;
11797;SDS011;5956;51.428;6.682;2023-07-20T07:42:40;7.35;;;5.72;;
11797;SDS011;5956;51.428;6.682;2023-07-20T07:45:07;5.03;;;4.45;;
11797;SDS011;5956;51.428;6.682;2023-07-20T07:47:34;4.70;;;4.40;;
11797;SDS011;5956;51.428;6.682;2023-07-20T07:50:02;4.55;;;4.25;;
11797;SDS011;5956;51.428;6.682;2023-07-20T07:52:28;4.57;;;4.00;;
11797;SDS011;5956;51.428;6.682;2023-07-20T07:54:55;3.97;;;3.78;;
11797;SDS011;5956;51.428;6.682;2023-07-20T07:57:21;3.47;;;3.17;;
11797;SDS011;5956;51.428;6.682;2023-07-20T07:59:48;4.18;;;3.90;;
11797;SDS011;5956;51.428;6.682;2023-07-20T08:02:15;3.95;;;3.58;;
11797;SDS011;5956;51.428;6.682;2023-07-20T08:04:41;3.80;;;3.60;;
11797;SDS011;5956;51.428;6.682;2023-07-20T08:07:09;4.18;;;3.88;;
11797;SDS011;5956;51.428;6.682;2023-07-20T08:09:36;4.65;;;4.25;;
11797;SDS011;5956;51.428;6.682;2023-07-20T08:12:03;5.07;;;4.68;;
11797;SDS011;5956;51.428;6.682;2023-07-20T08:14:29;6.45;;;5.97;;
11797;SDS011;5956;51.428;6.682;2023-07-20T08:16:56;5.50;;;5.10;;
11797;SDS011;5956;51.428;6.682;2023-07-20T08:19:23;3.88;;;3.67;;
11797;SDS011;5956;51.428;6.682;2023-07-20T08:21:50;4.10;;;3.78;;
11797;SDS011;5956;51.428;6.682;2023-07-20T08:24:17;3.15;;;2.95;;
11797;SDS011;5956;51.428;6.682;2023-07-20T08:26:44;4.35;;;4.05;;
11797;SDS011;5956;51.428;6.682;2023-07-20T08:29:10;3.10;;;2.90;;
11797;SDS011;5956;51.428;6.682;2023-07-20T08:31:37;3.30;;;2.83;;
11797;SDS011;5956;51.428;6.682;2023-07-20T08:34:03;2.50;;;2.30;;
11797;SDS011;5956;51.428;6.682;2023-07-20T08:36:30;2.50;;;2.30;;
11797;SDS011;5956;51.428;6.682;2023-07-20T08:38:57;2.20;;;2.10;;
11797;SDS011;5956;51.428;6.682;2023-07-20T08:41:26;2.25;;;2.10;;
11797;SDS011;5956;51.428;6.682;2023-07-20T08:43:53;2.72;;;2.53;;
11797;SDS011;5956;51.428;6.682;2023-07-20T08:46:21;2.67;;;2.35;;
11797;SDS011;5956;51.428;6.682;2023-07-20T08:48:48;2.35;;;2.22;;
11797;SDS011;5956;51.428;6.682;2023-07-20T08:51:15;1.50;;;1.40;;
11797;SDS011;5956;51.428;6.682;2023-07-20T08:53:42;2.17;;;2.08;;
11797;SDS011;5956;51.428;6.682;2023-07-20T08:56:11;2.08;;;1.98;;
11797;SDS011;5956;51.428;6.682;2023-07-20T08:58:40;1.80;;;1.70;;
11797;SDS011;5956;51.428;6.682;2023-07-20T09:01:08;1.52;;;1.52;;
11797;SDS011;5956;51.428;6.682;2023-07-20T09:03:34;2.00;;;1.90;;
11797;SDS011;5956;51.428;6.682;2023-07-20T09:06:04;1.60;;;1.50;;
11797;SDS011;5956;51.428;6.682;2023-07-20T09:08:30;1.88;;;1.63;;
11797;SDS011;5956;51.428;6.682;2023-07-20T09:10:57;2.47;;;1.77;;
11797;SDS011;5956;51.428;6.682;2023-07-20T09:13:24;1.60;;;1.40;;
11797;SDS011;5956;51.428;6.682;2023-07-20T09:15:54;2.65;;;1.60;;
11797;SDS011;5956;51.428;6.682;2023-07-20T09:18:24;1.40;;;1.30;;
11797;SDS011;5956;51.428;6.682;2023-07-20T09:20:50;1.50;;;1.40;;
11797;SDS011;5956;51.428;6.682;2023-07-20T09:23:17;1.20;;;1.10;;
11797;SDS011;5956;51.428;6.682;2023-07-20T09:25:43;1.00;;;1.00;;
11797;SDS011;5956;51.428;6.682;2023-07-20T09:28:11;1.20;;;1.20;;
11797;SDS011;5956;51.428;6.682;2023-07-20T09:30:37;1.17;;;1.17;;
11797;SDS011;5956;51.428;6.682;2023-07-20T09:33:05;0.80;;;0.80;;
11797;SDS011;5956;51.428;6.682;2023-07-20T09:35:32;0.85;;;0.70;;
11797;SDS011;5956;51.428;6.682;2023-07-20T09:37:58;1.83;;;0.95;;
11797;SDS011;5956;51.428;6.682;2023-07-20T09:40:25;0.73;;;0.73;;
11797;SDS011;5956;51.428;6.682;2023-07-20T09:42:52;0.95;;;0.90;;
11797;SDS011;5956;51.428;6.682;2023-07-20T09:45:27;1.02;;;0.82;;
11797;SDS011;5956;51.428;6.682;2023-07-20T09:47:55;0.90;;;0.90;;
11797;SDS011;5956;51.428;6.682;2023-07-20T09:50:30;3.38;;;0.80;;
11797;SDS011;5956;51.428;6.682;2023-07-20T09:52:57;0.70;;;0.70;;
11797;SDS011;5956;51.428;6.682;2023-07-20T09:55:25;3.38;;;1.15;;
11797;SDS011;5956;51.428;6.682;2023-07-20T09:57:52;1.15;;;1.10;;
11797;SDS011;5956;51.428;6.682;2023-07-20T10:00:19;1.10;;;1.00;;
11797;SDS011;5956;51.428;6.682;2023-07-20T10:02:45;2.58;;;1.27;;
11797;SDS011;5956;51.428;6.682;2023-07-20T10:05:13;0.90;;;0.90;;
11797;SDS011;5956;51.428;6.682;2023-07-20T10:07:43;1.88;;;1.77;;
11797;SDS011;5956;51.428;6.682;2023-07-20T10:10:10;1.92;;;1.15;;
11797;SDS011;5956;51.428;6.682;2023-07-20T10:12:37;0.63;;;0.63;;
11797;SDS011;5956;51.428;6.682;2023-07-20T10:15:06;1.10;;;1.02;;
11797;SDS011;5956;51.428;6.682;2023-07-20T10:17:35;0.68;;;0.68;;
11797;SDS011;5956;51.428;6.682;2023-07-20T10:20:03;0.93;;;0.90;;
11797;SDS011;5956;51.428;6.682;2023-07-20T10:22:31;0.75;;;0.75;;
11797;SDS011;5956;51.428;6.682;2023-07-20T10:25:02;0.75;;;0.70;;
11797;SDS011;5956;51.428;6.682;2023-07-20T10:27:30;1.45;;;0.90;;
11797;SDS011;5956;51.428;6.682;2023-07-20T10:29:57;0.93;;;0.93;;
11797;SDS011;5956;51.428;6.682;2023-07-20T10:32:26;1.35;;;0.98;;
11797;SDS011;5956;51.428;6.682;2023-07-20T10:34:55;0.88;;;0.88;;
11797;SDS011;5956;51.428;6.682;2023-07-20T10:40:28;1.02;;;0.98;;
11797;SDS011;5956;51.428;6.682;2023-07-20T10:42:56;2.47;;;0.90;;
11797;SDS011;5956;51.428;6.682;2023-07-20T10:45:32;0.82;;;0.82;;
11797;SDS011;5956;51.428;6.682;2023-07-20T10:47:59;0.70;;;0.70;;
11797;SDS011;5956;51.428;6.682;2023-07-20T10:50:29;0.77;;;0.77;;
11797;SDS011;5956;51.428;6.682;2023-07-20T10:53:03;0.80;;;0.80;;
11797;SDS011;5956;51.428;6.682;2023-07-20T10:55:32;1.35;;;0.80;;
11797;SDS011;5956;51.428;6.682;2023-07-20T10:58:08;1.00;;;1.00;;
11797;SDS011;5956;51.428;6.682;2023-07-20T11:00:36;1.05;;;1.05;;
11797;SDS011;5956;51.428;6.682;2023-07-20T11:03:03;0.80;;;0.80;;
11797;SDS011;5956;51.428;6.682;2023-07-20T11:05:33;1.30;;;0.90;;
11797;SDS011;5956;51.428;6.682;2023-07-20T11:08:02;1.67;;;1.00;;
11797;SDS011;5956;51.428;6.682;2023-07-20T11:10:29;0.65;;;0.65;;
11797;SDS011;5956;51.428;6.682;2023-07-20T11:16:02;0.73;;;0.73;;
11797;SDS011;5956;51.428;6.682;2023-07-20T11:18:31;0.60;;;0.60;;
11797;SDS011;5956;51.428;6.682;2023-07-20T11:20:59;0.90;;;0.90;;
11797;SDS011;5956;51.428;6.682;2023-07-20T11:23:25;0.63;;;0.63;;
11797;SDS011;5956;51.428;6.682;2023-07-20T11:25:52;1.23;;;1.00;;
11797;SDS011;5956;51.428;6.682;2023-07-20T11:28:18;0.90;;;0.90;;
11797;SDS011;5956;51.428;6.682;2023-07-20T11:30:45;1.13;;;0.90;;
11797;SDS011;5956;51.428;6.682;2023-07-20T11:33:17;0.95;;;0.82;;
11797;SDS011;5956;51.428;6.682;2023-07-20T11:35:44;1.00;;;0.80;;
11797;SDS011;5956;51.428;6.682;2023-07-20T11:38:11;1.25;;;1.25;;
11797;SDS011;5956;51.428;6.682;2023-07-20T11:40:41;0.88;;;0.88;;
11797;SDS011;5956;51.428;6.682;2023-07-20T11:43:08;1.42;;;0.77;;
11797;SDS011;5956;51.428;6.682;2023-07-20T11:45:35;0.70;;;0.70;;
11797;SDS011;5956;51.428;6.682;2023-07-20T11:48:04;1.30;;;1.00;;
11797;SDS011;5956;51.428;6.682;2023-07-20T11:50:32;0.80;;;0.80;;
11797;SDS011;5956;51.428;6.682;2023-07-20T11:52:58;2.17;;;1.00;;
11797;SDS011;5956;51.428;6.682;2023-07-20T11:55:25;0.73;;;0.73;;
11797;SDS011;5956;51.428;6.682;2023-07-20T11:58:00;0.80;;;0.80;;
11797;SDS011;5956;51.428;6.682;2023-07-20T12:00:27;0.70;;;0.70;;
11797;SDS011;5956;51.428;6.682;2023-07-20T12:02:53;0.90;;;0.90;;
11797;SDS011;5956;51.428;6.682;2023-07-20T12:05:21;0.68;;;0.68;;
11797;SDS011;5956;51.428;6.682;2023-07-20T12:07:49;0.68;;;0.68;;
11797;SDS011;5956;51.428;6.682;2023-07-20T12:10:22;1.60;;;0.82;;
11797;SDS011;5956;51.428;6.682;2023-07-20T12:12:49;1.20;;;0.90;;
11797;SDS011;5956;51.428;6.682;2023-07-20T12:15:16;0.70;;;0.70;;
11797;SDS011;5956;51.428;6.682;2023-07-20T12:17:43;1.15;;;0.90;;
11797;SDS011;5956;51.428;6.682;2023-07-20T12:20:10;0.75;;;0.75;;
11797;SDS011;5956;51.428;6.682;2023-07-20T12:22:38;1.45;;;0.80;;
11797;SDS011;5956;51.428;6.682;2023-07-20T12:25:06;1.10;;;0.90;;
11797;SDS011;5956;51.428;6.682;2023-07-20T12:27:35;1.15;;;1.15;;
11797;SDS011;5956;51.428;6.682;2023-07-20T12:30:01;1.00;;;1.00;;
11797;SDS011;5956;51.428;6.682;2023-07-20T12:32:29;0.85;;;0.82;;
11797;SDS011;5956;51.428;6.682;2023-07-20T12:34:56;0.90;;;0.90;;
11797;SDS011;5956;51.428;6.682;2023-07-20T12:37:22;0.82;;;0.82;;
11797;SDS011;5956;51.428;6.682;2023-07-20T12:39:49;0.73;;;0.73;;
11797;SDS011;5956;51.428;6.682;2023-07-20T12:42:18;1.50;;;0.77;;
11797;SDS011;5956;51.428;6.682;2023-07-20T12:44:44;0.68;;;0.68;;
11797;SDS011;5956;51.428;6.682;2023-07-20T12:47:11;0.70;;;0.70;;
11797;SDS011;5956;51.428;6.682;2023-07-20T12:49:38;1.10;;;1.00;;
11797;SDS011;5956;51.428;6.682;2023-07-20T12:52:05;1.00;;;1.00;;
11797;SDS011;5956;51.428;6.682;2023-07-20T12:54:32;1.38;;;0.93;;
11797;SDS011;5956;51.428;6.682;2023-07-20T12:56:58;0.80;;;0.80;;
11797;SDS011;5956;51.428;6.682;2023-07-20T12:59:26;0.75;;;0.75;;
11797;SDS011;5956;51.428;6.682;2023-07-20T13:01:52;0.70;;;0.70;;
11797;SDS011;5956;51.428;6.682;2023-07-20T13:04:19;0.70;;;0.70;;
11797;SDS011;5956;51.428;6.682;2023-07-20T13:06:45;0.60;;;0.60;;
11797;SDS011;5956;51.428;6.682;2023-07-20T13:09:12;0.60;;;0.60;;
11797;SDS011;5956;51.428;6.682;2023-07-20T13:11:38;0.90;;;0.82;;
11797;SDS011;5956;51.428;6.682;2023-07-20T13:14:05;0.93;;;0.82;;
11797;SDS011;5956;51.428;6.682;2023-07-20T13:16:33;0.80;;;0.80;;
11797;SDS011;5956;51.428;6.682;2023-07-20T13:19:00;0.63;;;0.63;;
11797;SDS011;5956;51.428;6.682;2023-07-20T13:21:27;1.05;;;0.90;;
11797;SDS011;5956;51.428;6.682;2023-07-20T13:23:54;0.60;;;0.60;;
11797;SDS011;5956;51.428;6.682;2023-07-20T13:26:20;1.00;;;1.00;;
11797;SDS011;5956;51.428;6.682;2023-07-20T13:28:47;0.80;;;0.80;;
11797;SDS011;5956;51.428;6.682;2023-07-20T13:31:14;2.17;;;1.20;;
11797;SDS011;5956;51.428;6.682;2023-07-20T13:33:43;1.63;;;1.20;;
11797;SDS011;5956;51.428;6.682;2023-07-20T13:36:10;6.28;;;2.45;;
11797;SDS011;5956;51.428;6.682;2023-07-20T13:38:36;1.55;;;1.45;;
11797;SDS011;5956;51.428;6.682;2023-07-20T13:41:03;5.70;;;3.13;;
11797;SDS011;5956;51.428;6.682;2023-07-20T13:43:29;11.10;;;3.50;;
11797;SDS011;5956;51.428;6.682;2023-07-20T13:45:56;1.02;;;0.95;;
11797;SDS011;5956;51.428;6.682;2023-07-20T13:48:22;4.40;;;2.70;;
11797;SDS011;5956;51.428;6.682;2023-07-20T13:50:51;15.45;;;8.23;;
11797;SDS011;5956;51.428;6.682;2023-07-20T13:53:18;4.07;;;2.45;;
11797;SDS011;5956;51.428;6.682;2023-07-20T13:55:44;1.58;;;1.25;;
11797;SDS011;5956;51.428;6.682;2023-07-20T13:58:11;0.90;;;0.90;;
11797;SDS011;5956;51.428;6.682;2023-07-20T14:00:37;0.50;;;0.50;;
11797;SDS011;5956;51.428;6.682;2023-07-20T14:03:04;1.17;;;1.00;;
11797;SDS011;5956;51.428;6.682;2023-07-20T14:05:31;1.13;;;0.80;;
11797;SDS011;5956;51.428;6.682;2023-07-20T14:08:00;2.13;;;0.90;;
11797;SDS011;5956;51.428;6.682;2023-07-20T14:10:28;1.30;;;0.88;;
11797;SDS011;5956;51.428;6.682;2023-07-20T14:12:55;1.02;;;0.88;;
11797;SDS011;5956;51.428;6.682;2023-07-20T14:15:22;2.65;;;1.20;;
11797;SDS011;5956;51.428;6.682;2023-07-20T14:17:48;0.90;;;0.90;;
11797;SDS011;5956;51.428;6.682;2023-07-20T14:20:15;1.48;;;1.17;;
11797;SDS011;5956;51.428;6.682;2023-07-20T14:22:41;0.85;;;0.85;;
11797;SDS011;5956;51.428;6.682;2023-07-20T14:25:10;1.10;;;1.10;;
11797;SDS011;5956;51.428;6.682;2023-07-20T14:27:38;1.67;;;1.42;;
11797;SDS011;5956;51.428;6.682;2023-07-20T14:30:05;1.25;;;1.00;;
11797;SDS011;5956;51.428;6.682;2023-07-20T14:32:31;1.00;;;1.00;;
11797;SDS011;5956;51.428;6.682;2023-07-20T14:34:59;0.82;;;0.80;;
11797;SDS011;5956;51.428;6.682;2023-07-20T14:37:25;1.15;;;0.95;;
11797;SDS011;5956;51.428;6.682;2023-07-20T14:39:52;1.05;;;1.05;;
11797;SDS011;5956;51.428;6.682;2023-07-20T14:42:20;0.90;;;0.90;;
11797;SDS011;5956;51.428;6.682;2023-07-20T14:44:47;1.05;;;1.00;;
11797;SDS011;5956;51.428;6.682;2023-07-20T14:47:13;1.67;;;1.00;;
11797;SDS011;5956;51.428;6.682;2023-07-20T14:49:40;1.13;;;1.00;;
11797;SDS011;5956;51.428;6.682;2023-07-20T14:52:07;0.80;;;0.80;;
11797;SDS011;5956;51.428;6.682;2023-07-20T14:54:34;1.13;;;1.02;;
11797;SDS011;5956;51.428;6.682;2023-07-20T14:57:00;0.60;;;0.60;;
11797;SDS011;5956;51.428;6.682;2023-07-20T14:59:29;1.63;;;1.10;;
11797;SDS011;5956;51.428;6.682;2023-07-20T15:01:55;0.98;;;0.98;;
11797;SDS011;5956;51.428;6.682;2023-07-20T15:04:22;1.25;;;1.02;;
11797;SDS011;5956;51.428;6.682;2023-07-20T15:06:49;1.38;;;1.00;;